createdAt,value
2018-08-20T00:01:57.240Z,69.67
2018-08-20T00:04:26.170Z,70.26
2018-08-20T00:06:57.626Z,69.24
2018-08-20T00:09:36.660Z,70.41
2018-08-20T00:12:06.905Z,70.95
2018-08-20T00:14:35.994Z,71.46
2018-08-20T00:17:05.248Z,70.03
2018-08-20T00:19:34.496Z,69.58
2018-08-20T00:22:03.587Z,69.95
2018-08-20T00:24:32.571Z,69.49
2018-08-20T00:27:02.922Z,69.37
2018-08-20T00:29:32.329Z,69.92
2018-08-20T00:32:01.222Z,69.68
2018-08-20T00:34:30.189Z,69.87
2018-08-20T00:36:59.164Z,70.33
2018-08-20T00:39:28.145Z,69.65
2018-08-20T00:41:57.156Z,69.92
2018-08-20T00:44:26.185Z,70.58
2018-08-20T00:46:55.054Z,69.97
2018-08-20T00:49:24.055Z,70.31
2018-08-20T00:51:52.990Z,70.60
2018-08-20T00:54:21.855Z,70.58
2018-08-20T00:56:50.925Z,69.85
2018-08-20T00:59:19.801Z,70.22
2018-08-20T01:01:48.694Z,69.91
2018-08-20T01:04:17.671Z,70.27
2018-08-20T01:06:46.571Z,69.56
2018-08-20T01:09:15.472Z,70.84
2018-08-20T01:11:44.429Z,70.24
2018-08-20T01:14:13.328Z,70.26
2018-08-20T01:16:42.958Z,70.35
2018-08-20T01:19:13.142Z,71.34
2018-08-20T01:21:42.128Z,70.97
2018-08-20T01:24:11.190Z,70.98
2018-08-20T01:26:40.199Z,71.13
2018-08-20T01:29:09.101Z,71.30
2018-08-20T01:31:38.017Z,71.01
2018-08-20T01:34:06.967Z,72.00
2018-08-20T01:36:35.839Z,70.83
2018-08-20T01:39:05.897Z,72.23
2018-08-20T01:41:34.890Z,72.04
2018-08-20T01:44:03.785Z,71.63
2018-08-20T01:46:32.674Z,71.55
2018-08-20T01:49:01.641Z,71.60
2018-08-20T01:51:30.711Z,71.63
2018-08-20T01:53:59.594Z,72.22
2018-08-20T01:56:28.641Z,71.65
2018-08-20T01:58:57.559Z,72.59
2018-08-20T02:01:27.055Z,73.17
2018-08-20T02:03:56.174Z,72.51
2018-08-20T02:06:25.171Z,72.90
2018-08-20T02:08:54.035Z,73.29
2018-08-20T02:11:23.043Z,73.34
2018-08-20T02:13:51.965Z,73.08
2018-08-20T02:16:21.339Z,73.81
2018-08-20T02:18:50.450Z,73.88
2018-08-20T02:21:19.421Z,73.90
2018-08-20T02:23:48.380Z,74.54
2018-08-20T02:26:17.449Z,74.87
2018-08-20T02:28:46.427Z,74.22
2018-08-20T02:31:15.463Z,75.16
2018-08-20T02:33:44.445Z,75.66
2018-08-20T02:36:13.313Z,75.78
2018-08-20T02:38:42.209Z,75.22
2018-08-20T02:41:11.256Z,75.84
2018-08-20T02:43:40.225Z,75.89
2018-08-20T02:46:09.179Z,75.71
2018-08-20T02:48:38.107Z,76.71
2018-08-20T02:51:07.264Z,77.62
2018-08-20T02:53:36.199Z,77.12
2018-08-20T02:56:05.169Z,77.56
2018-08-20T02:58:34.136Z,77.04
2018-08-20T03:01:03.040Z,77.17
2018-08-20T03:03:32.239Z,77.49
2018-08-20T03:06:01.188Z,76.89
2018-08-20T03:08:30.203Z,76.91
2018-08-20T03:10:59.276Z,77.39
2018-08-20T03:13:28.210Z,78.11
2018-08-20T03:15:57.175Z,79.91
2018-08-20T03:18:26.132Z,79.39
2018-08-20T03:20:55.373Z,79.68
2018-08-20T03:23:24.253Z,80.58
2018-08-20T03:25:53.222Z,81.04
2018-08-20T03:28:22.290Z,80.68
2018-08-20T03:30:51.196Z,80.67
2018-08-20T03:33:20.167Z,80.54
2018-08-20T03:35:49.061Z,81.52
2018-08-20T03:38:18.285Z,80.22
2018-08-20T03:40:47.173Z,80.87
2018-08-20T03:43:16.186Z,80.93
2018-08-20T03:45:45.270Z,81.16
2018-08-20T03:48:14.140Z,81.18
2018-08-20T03:50:43.030Z,80.66
2018-08-20T03:53:12.148Z,80.98
2018-08-20T03:55:41.153Z,80.45
2018-08-20T03:58:10.045Z,81.21
2018-08-20T04:00:39.029Z,80.34
2018-08-20T04:03:07.940Z,79.97
2018-08-20T04:05:36.841Z,81.19
2018-08-20T04:08:05.880Z,80.77
2018-08-20T04:10:34.773Z,81.68
2018-08-20T04:13:03.733Z,81.46
2018-08-20T04:15:32.699Z,81.55
2018-08-20T04:18:01.623Z,81.01
2018-08-20T04:20:30.607Z,81.03
2018-08-20T04:22:59.713Z,81.58
2018-08-20T04:25:28.903Z,81.49
2018-08-20T04:27:57.860Z,81.16
2018-08-20T04:30:26.796Z,81.23
2018-08-20T04:32:55.699Z,81.36
2018-08-20T04:35:25.099Z,81.12
2018-08-20T04:37:54.015Z,81.87
2018-08-20T04:40:22.997Z,81.48
2018-08-20T04:42:51.955Z,80.74
2018-08-20T04:45:26.181Z,81.59
2018-08-20T04:47:55.074Z,81.69
2018-08-20T04:50:24.075Z,81.34
2018-08-20T04:52:52.912Z,81.29
2018-08-20T04:55:21.822Z,82.54
2018-08-20T04:57:50.804Z,81.98
2018-08-20T05:00:19.664Z,81.47
2018-08-20T05:02:48.635Z,82.17
2018-08-20T05:05:17.544Z,81.51
2018-08-20T05:07:46.420Z,81.84
2018-08-20T05:10:15.396Z,82.15
2018-08-20T05:12:44.332Z,81.43
2018-08-20T05:15:13.279Z,81.83
2018-08-20T05:17:42.195Z,81.79
2018-08-20T05:20:11.109Z,81.65
2018-08-20T05:22:40.104Z,80.91
2018-08-20T05:25:09.069Z,81.81
2018-08-20T05:27:37.990Z,81.95
2018-08-20T05:30:07.700Z,82.08
2018-08-20T05:32:36.865Z,82.25
2018-08-20T05:35:06.491Z,82.09
2018-08-20T05:37:35.616Z,82.17
2018-08-20T05:40:04.647Z,81.64
2018-08-20T05:42:33.555Z,80.91
2018-08-20T05:45:02.715Z,82.14
2018-08-20T05:47:31.620Z,81.86
2018-08-20T05:50:00.644Z,81.67
2018-08-20T05:52:29.732Z,82.54
2018-08-20T05:54:58.584Z,81.90
2018-08-20T05:57:27.459Z,82.33
2018-08-20T05:59:56.464Z,81.73
2018-08-20T06:02:25.694Z,81.74
2018-08-20T06:04:54.627Z,81.53
2018-08-20T06:07:23.630Z,81.68
2018-08-20T06:09:52.509Z,83.67
2018-08-20T06:12:21.520Z,86.46
2018-08-20T06:14:50.526Z,87.23
2018-08-20T06:17:19.396Z,86.89
2018-08-20T06:19:48.390Z,88.36
2018-08-20T06:22:17.397Z,88.94
2018-08-20T06:24:46.330Z,88.98
2018-08-20T06:27:15.299Z,89.30
2018-08-20T06:29:44.231Z,89.66
2018-08-20T06:32:13.185Z,89.83
2018-08-20T06:34:42.205Z,90.31
2018-08-20T06:37:11.110Z,89.70
2018-08-20T06:39:40.098Z,88.80
2018-08-20T06:42:09.220Z,89.69
2018-08-20T06:44:38.139Z,89.38
2018-08-20T06:47:07.111Z,89.00
2018-08-20T06:49:36.090Z,89.19
2018-08-20T06:52:05.158Z,89.63
2018-08-20T06:54:34.088Z,89.28
2018-08-20T06:57:03.040Z,89.46
2018-08-20T06:59:31.972Z,89.33
2018-08-20T07:02:00.854Z,89.95
2018-08-20T07:04:29.844Z,89.58
2018-08-20T07:06:58.958Z,90.09
2018-08-20T07:09:28.173Z,89.00
2018-08-20T07:11:57.238Z,88.19
2018-08-20T07:14:26.149Z,88.22
2018-08-20T07:16:55.138Z,88.54
2018-08-20T07:19:24.200Z,88.57
2018-08-20T07:21:53.110Z,87.63
2018-08-20T07:24:22.008Z,87.59
2018-08-20T07:26:50.948Z,87.54
2018-08-20T07:29:39.601Z,87.21
2018-08-20T07:32:10.555Z,88.21
2018-08-20T07:34:43.574Z,88.06
2018-08-20T07:37:16.652Z,87.96
2018-08-20T07:39:47.604Z,87.47
2018-08-20T07:42:16.658Z,87.24
2018-08-20T07:44:46.211Z,86.66
2018-08-20T07:47:15.100Z,86.53
2018-08-20T07:49:44.028Z,86.44
2018-08-20T07:52:13.105Z,86.65
2018-08-20T07:54:42.129Z,86.19
2018-08-20T07:57:12.109Z,85.84
2018-08-20T07:59:41.108Z,86.24
2018-08-20T08:02:09.965Z,85.20
2018-08-20T08:04:38.953Z,84.86
2018-08-20T08:07:08.445Z,83.72
2018-08-20T08:09:37.316Z,83.00
2018-08-20T08:12:06.990Z,84.05
2018-08-20T08:14:35.987Z,83.72
2018-08-20T08:17:04.857Z,83.98
2018-08-20T08:19:35.397Z,84.20
2018-08-20T08:22:04.412Z,83.68
2018-08-20T08:24:33.292Z,84.61
2018-08-20T08:27:03.845Z,83.69
2018-08-20T08:29:32.823Z,83.74
2018-08-20T08:32:01.770Z,83.88
2018-08-20T08:34:33.154Z,83.61
2018-08-20T08:37:02.432Z,83.66
2018-08-20T08:39:34.069Z,82.71
2018-08-20T08:42:13.416Z,83.09
2018-08-20T08:44:42.248Z,82.95
2018-08-20T08:47:11.407Z,83.04
2018-08-20T08:49:40.449Z,82.14
2018-08-20T08:52:09.254Z,82.46
2018-08-20T08:54:38.191Z,81.69
2018-08-20T08:57:07.245Z,81.66
2018-08-20T08:59:36.105Z,81.81
2018-08-20T09:02:05.027Z,81.35
2018-08-20T09:04:33.960Z,81.86
2018-08-20T09:07:02.822Z,80.92
2018-08-20T09:09:31.745Z,80.99
2018-08-20T09:12:00.695Z,81.46
2018-08-20T09:14:29.542Z,81.79
2018-08-20T09:16:58.487Z,80.86
2018-08-20T09:19:27.328Z,80.84
2018-08-20T09:21:56.204Z,81.14
2018-08-20T09:24:25.122Z,81.39
2018-08-20T09:26:54.044Z,81.16
2018-08-20T09:29:23.346Z,82.64
2018-08-20T09:31:52.855Z,83.91
2018-08-20T09:34:21.805Z,85.06
2018-08-20T09:36:50.902Z,85.56
2018-08-20T09:39:33.700Z,85.96
2018-08-20T09:42:06.079Z,86.95
2018-08-20T09:44:45.261Z,86.79
2018-08-20T09:47:15.138Z,86.77
2018-08-20T09:49:43.995Z,86.91
2018-08-20T09:52:12.852Z,86.78
2018-08-20T09:54:41.852Z,87.06
2018-08-20T09:57:10.761Z,87.31
2018-08-20T09:59:39.641Z,86.96
2018-08-20T10:02:08.662Z,86.58
2018-08-20T10:04:37.519Z,85.85
2018-08-20T10:07:06.597Z,86.90
2018-08-20T10:09:35.523Z,85.69
2018-08-20T10:12:04.520Z,85.49
2018-08-20T10:14:33.797Z,86.18
2018-08-20T10:17:02.745Z,86.02
2018-08-20T10:19:31.596Z,86.99
2018-08-20T10:22:00.639Z,86.96
2018-08-20T10:24:29.585Z,87.70
2018-08-20T10:26:58.568Z,87.70
2018-08-20T10:29:27.453Z,86.84
2018-08-20T10:31:56.385Z,86.16
2018-08-20T10:34:25.293Z,85.83
2018-08-20T10:36:54.387Z,85.07
2018-08-20T10:39:23.225Z,85.59
2018-08-20T10:41:52.206Z,85.56
2018-08-20T10:44:21.073Z,85.37
2018-08-20T10:46:49.943Z,85.16
2018-08-20T10:49:19.102Z,83.57
2018-08-20T10:51:48.022Z,83.91
2018-08-20T10:54:16.891Z,82.79
2018-08-20T10:56:45.831Z,83.29
2018-08-20T10:59:14.784Z,82.46
2018-08-20T11:01:43.683Z,82.09
2018-08-20T11:04:12.550Z,82.36
2018-08-20T11:06:41.584Z,80.82
2018-08-20T11:09:10.634Z,81.26
2018-08-20T11:11:39.473Z,81.29
2018-08-20T11:14:08.324Z,81.64
2018-08-20T11:16:37.361Z,81.53
2018-08-20T11:19:06.263Z,79.82
2018-08-20T11:21:35.136Z,81.33
2018-08-20T11:24:04.767Z,79.85
2018-08-20T11:26:36.387Z,79.94
2018-08-20T11:29:06.468Z,79.06
2018-08-20T11:31:35.370Z,78.55
2018-08-20T11:34:04.357Z,77.82
2018-08-20T11:36:33.305Z,77.47
2018-08-20T11:39:02.242Z,76.67
2018-08-20T11:42:01.451Z,76.47
2018-08-20T11:44:31.921Z,76.30
2018-08-20T11:47:01.171Z,75.03
2018-08-20T11:49:30.406Z,74.77
2018-08-20T11:51:59.344Z,73.41
2018-08-20T11:54:28.357Z,73.72
2018-08-20T11:56:57.273Z,72.21
2018-08-20T11:59:26.162Z,71.86
2018-08-20T12:01:55.150Z,72.56
2018-08-20T12:04:25.093Z,72.89
2018-08-20T12:06:54.253Z,73.53
2018-08-20T12:09:23.174Z,73.53
2018-08-20T12:11:52.077Z,72.97
2018-08-20T12:14:21.016Z,72.92
2018-08-20T12:16:50.079Z,72.35
2018-08-20T12:19:19.081Z,72.35
2018-08-20T12:21:48.231Z,72.27
2018-08-20T12:24:17.137Z,72.49
2018-08-20T12:26:46.019Z,72.17
2018-08-20T12:29:15.703Z,72.22
2018-08-20T12:31:44.702Z,71.36
2018-08-20T12:34:13.616Z,71.03
2018-08-20T12:36:42.418Z,72.83
2018-08-20T12:39:11.402Z,71.91
2018-08-20T12:41:40.245Z,71.87
2018-08-20T12:44:09.121Z,72.25
2018-08-20T12:46:38.175Z,72.57
2018-08-20T12:49:07.020Z,72.37
2018-08-20T12:51:35.951Z,72.44
2018-08-20T12:54:04.915Z,72.67
2018-08-20T12:56:33.789Z,72.50
2018-08-20T12:59:02.756Z,73.71
2018-08-20T13:01:31.773Z,72.12
2018-08-20T13:04:01.270Z,72.55
2018-08-20T13:06:32.971Z,72.23
2018-08-20T13:09:02.143Z,71.67
2018-08-20T13:11:30.969Z,71.75
2018-08-20T13:13:59.981Z,71.37
2018-08-20T13:16:28.963Z,71.22
2018-08-20T13:18:57.825Z,71.51
2018-08-20T13:21:26.861Z,72.92
2018-08-20T13:23:55.705Z,73.18
2018-08-20T13:26:25.596Z,73.98
2018-08-20T13:28:54.960Z,72.67
2018-08-20T13:31:23.776Z,72.99
2018-08-20T13:33:52.602Z,72.73
2018-08-20T13:36:23.058Z,72.30
2018-08-20T13:38:51.897Z,72.99
2018-08-20T13:41:20.789Z,72.52
2018-08-20T13:43:49.940Z,71.80
2018-08-20T13:46:18.900Z,71.55
2018-08-20T13:48:47.764Z,71.64
2018-08-20T13:51:17.216Z,72.03
2018-08-20T13:53:46.104Z,71.83
2018-08-20T13:56:14.974Z,71.09
2018-08-20T13:58:43.938Z,72.01
2018-08-20T14:01:12.802Z,71.29
2018-08-20T14:03:41.630Z,71.73
2018-08-20T14:06:11.192Z,71.32
2018-08-20T14:08:40.078Z,71.89
2018-08-20T14:11:08.980Z,71.82
2018-08-20T14:13:38.433Z,72.70
2018-08-20T14:16:07.300Z,71.59
2018-08-20T14:18:36.207Z,71.38
2018-08-20T14:21:09.947Z,71.18
2018-08-20T14:23:39.271Z,71.32
2018-08-20T14:26:08.115Z,71.20
2018-08-20T14:28:36.980Z,71.15
2018-08-20T14:31:05.986Z,70.77
2018-08-20T14:33:34.877Z,70.77
2018-08-20T14:36:03.709Z,69.86
2018-08-20T14:38:33.338Z,69.80
2018-08-20T14:41:02.681Z,69.87
2018-08-20T14:43:31.611Z,69.63
2018-08-20T14:46:05.808Z,69.56
2018-08-20T14:48:34.694Z,69.36
2018-08-20T14:51:03.557Z,69.21
2018-08-20T14:53:32.660Z,69.54
2018-08-20T14:56:01.373Z,70.10
2018-08-20T14:58:30.216Z,69.15
2018-08-20T15:00:59.225Z,69.91
2018-08-20T15:03:28.104Z,69.07
2018-08-20T15:05:57.037Z,69.13
2018-08-20T15:08:25.986Z,68.86
2018-08-20T15:10:54.902Z,68.87
2018-08-20T15:13:25.145Z,68.34
2018-08-20T15:15:54.096Z,67.90
2018-08-20T15:18:22.897Z,68.38
2018-08-20T15:20:51.776Z,67.27
2018-08-20T15:23:20.784Z,67.16
2018-08-20T15:25:49.760Z,67.31
2018-08-20T15:28:18.687Z,67.86
2018-08-20T15:30:47.781Z,67.61
2018-08-20T15:33:16.612Z,66.74
2018-08-20T15:35:45.560Z,66.81
2018-08-20T15:38:14.581Z,66.97
2018-08-20T15:40:43.926Z,67.12
2018-08-20T15:43:13.563Z,66.37
2018-08-20T15:45:42.635Z,66.87
2018-08-20T15:48:11.682Z,67.50
2018-08-20T15:50:40.679Z,66.77
2018-08-20T15:53:09.602Z,66.43
2018-08-20T15:55:38.571Z,66.59
2018-08-20T15:58:07.416Z,66.22
2018-08-20T16:00:36.349Z,66.88
2018-08-20T16:03:05.346Z,66.88
2018-08-20T16:05:37.402Z,67.71
2018-08-20T16:08:06.632Z,66.81
2018-08-20T16:10:36.940Z,67.16
2018-08-20T16:13:05.976Z,67.57
2018-08-20T16:15:35.404Z,66.47
2018-08-20T16:18:04.405Z,66.88
2018-08-20T16:20:33.288Z,66.05
2018-08-20T16:23:02.168Z,67.65
2018-08-20T16:25:31.065Z,66.24
2018-08-20T16:28:00.079Z,67.05
2018-08-20T16:30:28.986Z,67.82
2018-08-20T16:32:57.923Z,66.20
2018-08-20T16:35:27.145Z,66.46
2018-08-20T16:37:56.018Z,67.02
2018-08-20T16:40:25.136Z,66.00
2018-08-20T16:42:54.046Z,67.03
2018-08-20T16:45:23.094Z,66.16
2018-08-20T16:47:52.048Z,67.15
2018-08-20T16:50:20.998Z,66.28
2018-08-20T16:52:49.905Z,65.95
2018-08-20T16:55:18.820Z,66.17
2018-08-20T16:57:47.748Z,66.47
2018-08-20T17:00:16.610Z,66.63
2018-08-20T17:02:45.738Z,66.16
2018-08-20T17:05:14.953Z,65.51
2018-08-20T17:07:43.924Z,64.28
2018-08-20T17:10:14.471Z,63.43
2018-08-20T17:12:43.373Z,62.57
2018-08-20T17:15:19.027Z,62.09
2018-08-20T17:17:47.907Z,61.67
2018-08-20T17:20:16.937Z,61.69
2018-08-20T17:22:46.002Z,63.13
2018-08-20T17:25:14.915Z,63.26
2018-08-20T17:27:50.048Z,63.64
2018-08-20T17:30:18.959Z,63.50
2018-08-20T17:32:47.945Z,64.35
2018-08-20T17:35:16.862Z,63.55
2018-08-20T17:37:46.099Z,63.79
2018-08-20T17:40:16.226Z,64.52
2018-08-20T17:42:45.049Z,64.50
2018-08-20T17:45:14.032Z,64.64
2018-08-20T17:47:43.117Z,63.86
2018-08-20T17:50:26.907Z,64.18
2018-08-20T17:52:56.284Z,64.85
2018-08-20T17:55:25.132Z,64.35
2018-08-20T17:57:54.027Z,65.03
2018-08-20T18:00:27.568Z,65.70
2018-08-20T18:02:56.439Z,65.07
2018-08-20T18:05:25.881Z,65.30
2018-08-20T18:07:55.053Z,64.70
2018-08-20T18:10:23.923Z,65.99
2018-08-20T18:12:52.961Z,64.78
2018-08-20T18:15:21.830Z,64.82
2018-08-20T18:17:51.541Z,64.54
2018-08-20T18:20:20.472Z,64.86
2018-08-20T18:22:49.384Z,65.57
2018-08-20T18:25:18.245Z,64.08
2018-08-20T18:27:47.217Z,65.10
2018-08-20T18:30:17.603Z,64.46
2018-08-20T18:32:46.777Z,64.35
2018-08-20T18:35:21.206Z,64.52
2018-08-20T18:37:51.820Z,64.54
2018-08-20T18:40:20.689Z,65.20
2018-08-20T18:42:49.601Z,65.70
2018-08-20T18:45:18.477Z,65.08
2018-08-20T18:47:47.399Z,65.92
2018-08-20T18:50:16.291Z,65.21
2018-08-20T18:52:45.157Z,65.05
2018-08-20T18:55:14.074Z,65.35
2018-08-20T18:57:43.095Z,64.57
2018-08-20T19:00:13.626Z,64.87
2018-08-20T19:02:52.666Z,65.51
2018-08-20T19:05:21.771Z,65.19
2018-08-20T19:07:50.850Z,65.61
2018-08-20T19:10:21.027Z,65.35
2018-08-20T19:12:50.071Z,65.53
2018-08-20T19:15:31.057Z,65.91
2018-08-20T19:18:00.058Z,65.72
2018-08-20T19:20:28.949Z,65.53
2018-08-20T19:22:57.951Z,65.78
2018-08-20T19:25:27.227Z,66.20
2018-08-20T19:27:56.085Z,66.76
2018-08-20T19:30:26.193Z,66.71
2018-08-20T19:32:55.057Z,67.01
2018-08-20T19:35:24.278Z,66.73
2018-08-20T19:37:53.154Z,67.37
2018-08-20T19:40:22.046Z,68.39
2018-08-20T19:42:52.285Z,68.09
2018-08-20T19:45:24.107Z,68.08
2018-08-20T19:47:53.149Z,69.26
2018-08-20T19:50:22.012Z,69.13
2018-08-20T19:52:50.901Z,69.28
2018-08-20T19:55:20.464Z,69.99
2018-08-20T19:57:50.214Z,69.02
2018-08-20T20:00:19.355Z,69.31
2018-08-20T20:02:48.272Z,69.06
2018-08-20T20:05:17.256Z,68.97
2018-08-20T20:07:56.372Z,69.21
2018-08-20T20:10:25.380Z,69.86
2018-08-20T20:12:55.293Z,69.49
2018-08-20T20:15:25.018Z,68.87
2018-08-20T20:17:55.064Z,69.31
2018-08-20T20:20:24.016Z,69.64
2018-08-20T20:22:52.963Z,69.61
2018-08-20T20:25:21.869Z,70.66
2018-08-20T20:27:50.751Z,69.33
2018-08-20T20:30:20.356Z,70.78
2018-08-20T20:32:49.280Z,70.75
2018-08-20T20:35:18.250Z,70.42
2018-08-20T20:37:47.247Z,70.65
2018-08-20T20:40:16.251Z,71.14
2018-08-20T20:42:45.253Z,71.16
2018-08-20T20:45:14.326Z,71.30
2018-08-20T20:47:43.411Z,70.59
2018-08-20T20:50:12.336Z,71.51
2018-08-20T20:52:41.686Z,71.49
2018-08-20T20:55:10.662Z,72.29
2018-08-20T20:57:39.844Z,72.63
2018-08-20T21:00:10.263Z,72.26
2018-08-20T21:02:39.480Z,71.87
2018-08-20T21:05:09.753Z,72.48
2018-08-20T21:07:39.133Z,71.46
2018-08-20T21:10:08.346Z,72.81
2018-08-20T21:12:37.146Z,72.82
2018-08-20T21:15:07.746Z,72.57
2018-08-20T21:17:37.393Z,72.71
2018-08-20T21:20:07.406Z,73.89
2018-08-20T21:22:36.912Z,73.40
2018-08-20T21:25:06.789Z,74.43
2018-08-20T21:27:35.656Z,74.28
2018-08-20T21:30:04.706Z,74.11
2018-08-20T21:32:33.879Z,74.20
2018-08-20T21:35:03.356Z,74.67
2018-08-20T21:37:32.274Z,74.34
2018-08-20T21:40:01.652Z,74.16
2018-08-20T21:42:36.075Z,74.21
2018-08-20T21:45:05.569Z,74.49
2018-08-20T21:47:34.502Z,73.48
2018-08-20T21:50:03.422Z,73.16
2018-08-20T21:52:32.337Z,73.53
2018-08-20T21:55:01.208Z,73.77
2018-08-20T21:57:30.168Z,73.54
2018-08-20T22:00:12.892Z,74.59
2018-08-20T22:02:44.638Z,74.72
2018-08-20T22:05:13.483Z,74.79
2018-08-20T22:07:42.395Z,75.17
2018-08-20T22:10:11.541Z,75.12
2018-08-20T22:12:40.892Z,74.38
2018-08-20T22:15:09.796Z,76.21
2018-08-20T22:17:42.113Z,75.68
2018-08-20T22:20:11.004Z,76.20
2018-08-20T22:22:39.873Z,76.63
2018-08-20T22:25:10.566Z,76.19
2018-08-20T22:27:45.157Z,75.33
2018-08-20T22:30:15.759Z,76.06
2018-08-20T22:32:45.205Z,75.37
2018-08-20T22:35:19.597Z,76.23
2018-08-20T22:37:50.936Z,75.60
2018-08-20T22:40:20.877Z,76.15
2018-08-20T22:42:54.834Z,76.55
2018-08-20T22:45:23.791Z,76.65
2018-08-20T22:47:53.134Z,77.49
2018-08-20T22:50:22.061Z,77.67
2018-08-20T22:52:51.918Z,76.79
2018-08-20T22:55:21.928Z,77.42
2018-08-20T22:58:02.127Z,77.20
2018-08-20T23:00:31.072Z,77.10
2018-08-20T23:02:59.942Z,76.62
2018-08-20T23:05:29.055Z,76.57
2018-08-20T23:08:01.610Z,77.38
2018-08-20T23:10:30.583Z,77.09
2018-08-20T23:12:59.603Z,76.93
2018-08-20T23:15:28.537Z,77.32
2018-08-20T23:17:57.564Z,77.26
2018-08-20T23:20:30.444Z,77.12
2018-08-20T23:22:59.513Z,78.28
2018-08-20T23:25:28.364Z,78.34
2018-08-20T23:27:57.312Z,77.47
2018-08-20T23:30:26.284Z,76.96
2018-08-20T23:32:55.149Z,77.76
2018-08-20T23:35:24.138Z,77.69
2018-08-20T23:37:53.072Z,77.83
2018-08-20T23:40:21.937Z,78.05
2018-08-20T23:42:51.019Z,78.57
2018-08-20T23:45:19.998Z,77.72
2018-08-20T23:47:48.842Z,77.83
2018-08-20T23:50:17.864Z,78.46
2018-08-20T23:52:46.751Z,77.16
2018-08-20T23:55:15.612Z,76.34
2018-08-20T23:57:44.527Z,76.34
